createdAt,value
2018-02-04T00:00:29.670Z,0.53
2018-02-04T00:01:51.659Z,0.55
2018-02-04T00:03:13.519Z,0.55
2018-02-04T00:04:35.419Z,0.58
2018-02-04T00:05:57.628Z,0.62
2018-02-04T00:07:19.748Z,0.61
2018-02-04T00:08:41.457Z,0.55
2018-02-04T00:10:03.322Z,0.6
2018-02-04T00:11:25.211Z,0.62
2018-02-04T00:12:47.098Z,0.6
2018-02-04T00:14:08.703Z,0.62
2018-02-04T00:15:30.079Z,0.53
2018-02-04T00:16:52.201Z,0.61
2018-02-04T00:18:13.790Z,0.75
2018-02-04T00:19:35.691Z,0.75
2018-02-04T00:20:57.843Z,0.79
2018-02-04T00:22:19.429Z,0.83
2018-02-04T00:23:40.769Z,0.79
2018-02-04T00:25:02.758Z,0.78
2018-02-04T00:26:24.704Z,0.73
2018-02-04T00:27:46.842Z,0.76
2018-02-04T00:29:08.444Z,0.84
2018-02-04T00:30:30.278Z,0.84
2018-02-04T00:31:52.149Z,0.75
2018-02-04T00:33:14.004Z,0.79
2018-02-04T00:34:36.205Z,0.86
2018-02-04T00:35:58.215Z,0.76
2018-02-04T00:37:20.080Z,0.86
2018-02-04T00:38:41.717Z,0.93
2018-02-04T00:40:03.749Z,0.87
2018-02-04T00:41:25.661Z,0.96
2018-02-04T00:42:47.862Z,0.96
2018-02-04T00:44:09.740Z,0.9
2018-02-04T00:45:31.350Z,0.91
2018-02-04T00:46:53.229Z,0.91
2018-02-04T00:48:14.599Z,0.91
2018-02-04T00:49:36.741Z,0.93
2018-02-04T00:50:58.854Z,0.91
2018-02-04T00:52:20.779Z,1.04
2018-02-04T00:53:42.350Z,1
2018-02-04T00:55:04.180Z,0.96
2018-02-04T00:56:26.208Z,1.09
2018-02-04T00:57:48.169Z,1.04
2018-02-04T00:59:09.780Z,1
2018-02-04T01:00:31.933Z,0.94
2018-02-04T01:01:53.534Z,1.06
2018-02-04T01:03:15.399Z,0.97
2018-02-04T01:04:37.629Z,0.98
2018-02-04T01:05:59.478Z,1
2018-02-04T01:07:21.132Z,0.96
2018-02-04T01:08:42.716Z,0.93
2018-02-04T01:10:04.291Z,0.96
2018-02-04T01:11:26.436Z,0.87
2018-02-04T01:12:48.532Z,0.96
2018-02-04T01:14:10.404Z,0.87
2018-02-04T01:15:32.020Z,0.79
2018-02-04T01:16:53.960Z,0.76
2018-02-04T01:18:15.798Z,0.76
2018-02-04T01:19:37.755Z,0.72
2018-02-04T01:20:59.669Z,0.76
2018-02-04T01:22:21.790Z,0.76
2018-02-04T01:23:43.903Z,0.8
2018-02-04T01:25:06.064Z,0.79
2018-02-04T01:26:27.925Z,0.79
2018-02-04T01:27:49.521Z,0.78
2018-02-04T01:29:11.149Z,0.78
2018-02-04T01:30:32.735Z,0.75
2018-02-04T01:31:54.621Z,0.76
2018-02-04T01:33:16.532Z,0.79
2018-02-04T01:34:38.169Z,0.87
2018-02-04T01:36:00.041Z,0.84
2018-02-04T01:37:22.241Z,0.83
2018-02-04T01:38:44.579Z,0.7
2018-02-04T01:40:06.777Z,0.8
2018-02-04T01:41:27.846Z,0.79
2018-02-04T01:42:49.429Z,0.84
2018-02-04T01:44:11.293Z,0.79
2018-02-04T01:45:32.899Z,0.75
2018-02-04T01:46:54.569Z,0.73
2018-02-04T01:48:16.435Z,0.6
2018-02-04T01:49:38.133Z,0.65
2018-02-04T01:50:59.969Z,0.62
2018-02-04T01:52:21.579Z,0.55
2018-02-04T01:53:43.230Z,0.69
2018-02-04T01:55:05.089Z,0.61
2018-02-04T01:56:26.677Z,0.58
2018-02-04T01:57:48.279Z,0.61
2018-02-04T01:59:09.609Z,0.6
2018-02-04T02:00:31.239Z,0.6
2018-02-04T02:01:53.120Z,0.58
2018-02-04T02:03:14.194Z,0.53
2018-02-04T02:04:36.078Z,0.57
2018-02-04T02:05:57.459Z,0.51
2018-02-04T02:07:19.049Z,0.47
2018-02-04T02:08:40.427Z,0.49
2018-02-04T02:10:02.283Z,0.39
2018-02-04T02:11:23.620Z,0.38
2018-02-04T02:12:45.470Z,0.33
2018-02-04T02:14:07.578Z,0.32
2018-02-04T02:15:29.198Z,0.31
2018-02-04T02:16:50.582Z,0.23
2018-02-04T02:18:12.185Z,0.18
2018-02-04T02:19:33.781Z,0.17
2018-02-04T02:20:55.486Z,0.15
2018-02-04T02:22:17.105Z,0.11
2018-02-04T02:23:38.774Z,0.08
2018-02-04T02:25:00.639Z,0
2018-02-04T02:26:22.928Z,-0.01
2018-02-04T02:27:44.793Z,-0.04
2018-02-04T02:29:06.379Z,-0.16
2018-02-04T02:30:28.489Z,-0.1
2018-02-04T02:31:49.821Z,-0.18
2018-02-04T02:33:11.420Z,-0.16
2018-02-04T02:34:33.626Z,-0.18
2018-02-04T02:35:55.489Z,-0.28
2018-02-04T02:37:17.016Z,-0.28
2018-02-04T02:38:38.859Z,-0.34
2018-02-04T02:40:00.251Z,-0.34
2018-02-04T02:41:22.114Z,-0.29
2018-02-04T02:42:43.462Z,-0.34
2018-02-04T02:44:05.582Z,-0.34
2018-02-04T02:45:27.218Z,-0.36
2018-02-04T02:46:49.333Z,-0.4
2018-02-04T02:48:11.281Z,-0.31
2018-02-04T02:49:32.375Z,-0.26
2018-02-04T02:50:54.608Z,-0.22
2018-02-04T02:52:15.962Z,-0.14
2018-02-04T02:53:37.834Z,-0.16
2018-02-04T02:54:59.154Z,-0.11
2018-02-04T02:56:20.639Z,-0.15
2018-02-04T02:57:42.503Z,-0.04
2018-02-04T02:59:04.361Z,0
2018-02-04T03:00:25.961Z,0.03
2018-02-04T03:01:47.562Z,0.11
2018-02-04T03:03:09.155Z,0.23
2018-02-04T03:04:30.584Z,0.24
2018-02-04T03:05:52.701Z,0.31
2018-02-04T03:07:14.542Z,0.39
2018-02-04T03:08:36.141Z,0.39
2018-02-04T03:09:58.231Z,0.46
2018-02-04T03:11:20.141Z,0.51
2018-02-04T03:12:42.086Z,0.57
2018-02-04T03:14:03.672Z,0.61
2018-02-04T03:15:25.612Z,0.55
2018-02-04T03:16:47.216Z,0.6
2018-02-04T03:18:08.858Z,0.69
2018-02-04T03:19:30.941Z,0.72
2018-02-04T03:20:52.810Z,0.76
2018-02-04T03:22:14.770Z,0.8
2018-02-04T03:23:36.640Z,0.73
2018-02-04T03:24:58.241Z,0.78
2018-02-04T03:26:20.090Z,0.8
2018-02-04T03:27:41.703Z,0.79
2018-02-04T03:29:03.299Z,0.84
2018-02-04T03:30:24.637Z,0.78
2018-02-04T03:31:46.556Z,0.84
2018-02-04T03:33:08.150Z,0.84
2018-02-04T03:34:30.029Z,0.83
2018-02-04T03:35:51.350Z,0.86
2018-02-04T03:37:13.238Z,0.9
2018-02-04T03:38:34.572Z,0.8
2018-02-04T03:39:56.420Z,0.93
2018-02-04T03:41:18.285Z,0.9
2018-02-04T03:42:39.879Z,0.88
2018-02-04T03:44:01.246Z,0.87
2018-02-04T03:45:22.908Z,0.88
2018-02-04T03:46:44.536Z,0.87
2018-02-04T03:48:06.533Z,0.86
2018-02-04T03:49:27.928Z,0.78
2018-02-04T03:50:49.788Z,0.86
2018-02-04T03:52:10.880Z,0.9
2018-02-04T03:53:32.795Z,0.93
2018-02-04T03:54:54.658Z,0.97
2018-02-04T03:56:16.676Z,0.8
2018-02-04T03:57:38.579Z,0.87
2018-02-04T03:58:59.980Z,0.94
2018-02-04T04:00:21.833Z,0.9
2018-02-04T04:01:43.344Z,0.86
2018-02-04T04:03:05.229Z,0.94
2018-02-04T04:04:26.315Z,0.98
2018-02-04T04:05:47.888Z,1.02
2018-02-04T04:07:09.197Z,1.09
2018-02-04T04:08:30.878Z,1.11
2018-02-04T04:09:52.975Z,1.15
2018-02-04T04:11:14.308Z,1.11
2018-02-04T04:12:36.190Z,1.12
2018-02-04T04:13:57.637Z,1.06
2018-02-04T04:15:18.958Z,1.11
2018-02-04T04:16:40.313Z,1.09
2018-02-04T04:18:01.922Z,1.09
2018-02-04T04:19:23.243Z,1.11
2018-02-04T04:20:44.567Z,1.02
2018-02-04T04:22:06.147Z,0.97
2018-02-04T04:23:27.739Z,0.97
2018-02-04T04:24:49.590Z,1.02
2018-02-04T04:26:11.526Z,1.02
2018-02-04T04:27:33.405Z,1.08
2018-02-04T04:28:54.798Z,1.05
2018-02-04T04:30:16.127Z,1.11
2018-02-04T04:31:37.990Z,1.04
2018-02-04T04:32:59.841Z,1
2018-02-04T04:34:21.688Z,0.98
2018-02-04T04:35:43.709Z,1.05
2018-02-04T04:37:05.433Z,0.91
2018-02-04T04:38:26.769Z,1.04
2018-02-04T04:39:48.631Z,1.08
2018-02-04T04:41:10.468Z,1.06
2018-02-04T04:42:31.788Z,1.11
2018-02-04T04:43:53.129Z,1.11
2018-02-04T04:45:15.281Z,1.15
2018-02-04T04:46:36.873Z,1.05
2018-02-04T04:47:59.001Z,1.09
2018-02-04T04:49:20.987Z,1.14
2018-02-04T04:50:42.883Z,1.18
2018-02-04T04:52:03.968Z,1.22
2018-02-04T04:53:25.313Z,1.22
2018-02-04T04:54:47.297Z,1.14
2018-02-04T04:56:09.132Z,1.12
2018-02-04T04:57:30.552Z,1.08
2018-02-04T04:58:52.130Z,1.11
2018-02-04T05:00:14.255Z,1.06
2018-02-04T05:01:35.680Z,1.08
2018-02-04T05:02:57.638Z,1
2018-02-04T05:04:19.763Z,1.12
2018-02-04T05:05:41.340Z,1.14
2018-02-04T05:07:03.185Z,1.08
2018-02-04T05:08:25.349Z,1.08
2018-02-04T05:09:46.949Z,1.08
2018-02-04T05:11:08.787Z,1.06
2018-02-04T05:12:30.935Z,1.06
2018-02-04T05:13:52.569Z,1.09
2018-02-04T05:15:14.178Z,1.12
2018-02-04T05:16:35.279Z,1.14
2018-02-04T05:17:57.036Z,1.08
2018-02-04T05:19:18.477Z,1.16
2018-02-04T05:20:39.797Z,1.26
2018-02-04T05:22:01.406Z,1.24
2018-02-04T05:23:22.808Z,1.27
2018-02-04T05:24:44.401Z,1.27
2018-02-04T05:26:06.338Z,1.18
2018-02-04T05:27:27.670Z,1.29
2018-02-04T05:28:49.278Z,1.24
2018-02-04T05:30:10.872Z,1.18
2018-02-04T05:31:32.469Z,1.15
2018-02-04T05:32:54.323Z,1.09
2018-02-04T05:34:15.889Z,1.22
2018-02-04T05:35:37.557Z,1.08
2018-02-04T05:36:59.149Z,1.06
2018-02-04T05:38:21.018Z,1.26
2018-02-04T05:39:42.873Z,1.15
2018-02-04T05:41:04.290Z,1.08
2018-02-04T05:42:26.158Z,1.06
2018-02-04T05:43:47.740Z,1.26
2018-02-04T05:45:09.658Z,1.24
2018-02-04T05:46:31.699Z,1.23
2018-02-04T05:47:53.282Z,1.27
2018-02-04T05:49:15.137Z,1.29
2018-02-04T05:50:36.741Z,1.11
2018-02-04T05:51:58.843Z,1.09
2018-02-04T05:53:20.718Z,1.14
2018-02-04T05:54:42.308Z,1.09
2018-02-04T05:56:04.577Z,1.06
2018-02-04T05:57:25.918Z,1.08
2018-02-04T05:58:47.287Z,1.3
2018-02-04T06:00:09.398Z,1.24
2018-02-04T06:01:31.260Z,1.3
2018-02-04T06:02:52.622Z,1.16
2018-02-04T06:04:14.517Z,1.22
2018-02-04T06:05:35.948Z,1.22
2018-02-04T06:06:57.299Z,1.27
2018-02-04T06:08:18.893Z,1.33
2018-02-04T06:09:40.501Z,1.24
2018-02-04T06:11:02.102Z,1.29
2018-02-04T06:12:23.725Z,0.98
2018-02-04T06:13:45.599Z,0.91
2018-02-04T06:15:07.519Z,0.9
2018-02-04T06:16:29.124Z,0.84
2018-02-04T06:17:50.969Z,0.75
2018-02-04T06:19:12.438Z,0.76
2018-02-04T06:20:34.037Z,0.79
2018-02-04T06:21:55.418Z,0.78
2018-02-04T06:23:17.278Z,0.68
2018-02-04T06:24:38.353Z,0.83
2018-02-04T06:26:00.061Z,0.75
2018-02-04T06:27:21.395Z,0.66
2018-02-04T06:28:43.384Z,0.58
2018-02-04T06:30:05.085Z,0.58
2018-02-04T06:31:27.020Z,0.58
2018-02-04T06:32:48.924Z,0.58
2018-02-04T06:34:11.124Z,0.53
2018-02-04T06:35:32.989Z,0.57
2018-02-04T06:36:55.106Z,0.61
2018-02-04T06:38:16.710Z,0.55
2018-02-04T06:39:38.301Z,0.53
2018-02-04T06:40:59.900Z,0.65
2018-02-04T06:42:21.767Z,0.62
2018-02-04T06:43:43.188Z,0.65
2018-02-04T06:45:04.837Z,0.7
2018-02-04T06:46:26.010Z,0.69
2018-02-04T06:47:47.858Z,0.62
2018-02-04T06:49:09.829Z,0.69
2018-02-04T06:50:31.694Z,0.57
2018-02-04T06:51:53.129Z,0.6
2018-02-04T06:53:14.979Z,0.61
2018-02-04T06:54:36.678Z,0.61
2018-02-04T06:55:58.340Z,0.6
2018-02-04T06:57:19.931Z,0.57
2018-02-04T06:58:41.518Z,0.61
2018-02-04T07:00:03.405Z,0.61
2018-02-04T07:01:24.605Z,0.57
2018-02-04T07:02:46.217Z,0.55
2018-02-04T07:04:07.299Z,0.62
2018-02-04T07:05:29.150Z,0.6
2018-02-04T07:06:50.878Z,0.65
2018-02-04T07:08:12.479Z,0.58
2018-02-04T07:09:33.815Z,0.61
2018-02-04T07:10:55.578Z,0.53
2018-02-04T07:12:17.455Z,0.58
2018-02-04T07:13:39.331Z,0.55
2018-02-04T07:15:01.199Z,0.5
2018-02-04T07:16:23.054Z,0.49
2018-02-04T07:17:44.633Z,0.5
2018-02-04T07:19:05.948Z,0.42
2018-02-04T07:20:27.578Z,0.46
2018-02-04T07:21:49.460Z,0.39
2018-02-04T07:23:11.629Z,0.28
2018-02-04T07:24:33.291Z,0.36
2018-02-04T07:25:54.896Z,0.24
2018-02-04T07:27:16.859Z,0.14
2018-02-04T07:28:38.444Z,0.15
2018-02-04T07:30:00.205Z,0.08
2018-02-04T07:31:22.329Z,0.13
2018-02-04T07:32:44.032Z,0.04
2018-02-04T07:34:05.875Z,0.03
2018-02-04T07:35:26.945Z,0.14
2018-02-04T07:36:48.600Z,0.1
2018-02-04T07:38:10.837Z,0.21
2018-02-04T07:39:32.560Z,0.28
2018-02-04T07:40:54.412Z,0.38
2018-02-04T07:42:16.288Z,0.41
2018-02-04T07:43:38.408Z,0.46
2018-02-04T07:45:00.268Z,0.49
2018-02-04T07:46:22.147Z,0.57
2018-02-04T07:47:43.740Z,0.65
2018-02-04T07:49:05.345Z,0.72
2018-02-04T07:50:27.203Z,0.73
2018-02-04T07:51:49.417Z,0.7
2018-02-04T07:53:11.331Z,0.75
2018-02-04T07:54:33.456Z,0.8
2018-02-04T07:55:55.657Z,0.78
2018-02-04T07:57:17.014Z,0.76
2018-02-04T07:58:39.159Z,0.83
2018-02-04T08:00:01.018Z,0.83
2018-02-04T08:01:22.875Z,0.9
2018-02-04T08:02:44.480Z,0.86
2018-02-04T08:04:06.081Z,0.9
2018-02-04T08:05:27.161Z,0.87
2018-02-04T08:06:48.505Z,0.94
2018-02-04T08:08:09.857Z,0.88
2018-02-04T08:09:32.002Z,0.96
2018-02-04T08:10:54.127Z,0.94
2018-02-04T08:12:16.254Z,0.93
2018-02-04T08:13:38.361Z,0.8
2018-02-04T08:14:59.965Z,0.84
2018-02-04T08:16:21.829Z,0.86
2018-02-04T08:17:43.460Z,0.8
2018-02-04T08:19:05.078Z,0.73
2018-02-04T08:20:27.432Z,0.75
2018-02-04T08:21:48.785Z,0.73
2018-02-04T08:23:10.640Z,0.72
2018-02-04T08:24:32.658Z,0.78
2018-02-04T08:25:54.518Z,0.8
2018-02-04T08:27:16.455Z,1.02
2018-02-04T08:28:37.738Z,1.08
2018-02-04T08:29:59.449Z,1.23
2018-02-04T08:31:21.562Z,1.3
2018-02-04T08:32:43.702Z,1.24
2018-02-04T08:34:05.869Z,1.41
2018-02-04T08:35:27.760Z,1.5
2018-02-04T08:36:49.978Z,1.4
2018-02-04T08:38:11.638Z,1.36
2018-02-04T08:39:33.501Z,1.42
2018-02-04T08:40:55.267Z,1.3
2018-02-04T08:42:17.452Z,1.12
2018-02-04T08:43:39.335Z,1.3
2018-02-04T08:45:01.079Z,1.27
2018-02-04T08:46:22.957Z,1.24
2018-02-04T08:47:44.449Z,1.3
2018-02-04T08:49:06.341Z,1.24
2018-02-04T08:50:28.296Z,1.27
2018-02-04T08:51:49.885Z,1.4
2018-02-04T08:53:11.300Z,1.4
2018-02-04T08:54:33.448Z,1.32
2018-02-04T08:55:55.357Z,1.26
2018-02-04T08:57:17.515Z,1.4
2018-02-04T08:58:39.633Z,1.48
2018-02-04T09:00:01.851Z,1.37
2018-02-04T09:01:23.745Z,1.41
2018-02-04T09:02:45.626Z,1.45
2018-02-04T09:04:07.739Z,1.58
2018-02-04T09:05:29.345Z,1.8
2018-02-04T09:06:50.959Z,1.72
2018-02-04T09:08:12.986Z,1.81
2018-02-04T09:09:35.110Z,1.93
2018-02-04T09:10:56.958Z,1.72
2018-02-04T09:12:18.878Z,1.65
2018-02-04T09:13:40.740Z,1.59
2018-02-04T09:15:02.730Z,1.7
2018-02-04T09:16:25.081Z,1.65
2018-02-04T09:17:47.201Z,1.58
2018-02-04T09:19:09.059Z,1.59
2018-02-04T09:20:30.957Z,1.51
2018-02-04T09:21:52.288Z,1.34
2018-02-04T09:23:13.898Z,1.41
2018-02-04T09:24:36.040Z,1.37
2018-02-04T09:25:57.949Z,1.36
2018-02-04T09:27:19.566Z,1.27
2018-02-04T09:28:41.522Z,1.15
2018-02-04T09:30:03.145Z,1.14
2018-02-04T09:31:25.256Z,1.11
2018-02-04T09:32:47.128Z,1.18
2018-02-04T09:34:08.737Z,1.09
2018-02-04T09:35:30.347Z,1.09
2018-02-04T09:36:52.224Z,1.32
2018-02-04T09:38:13.850Z,1.36
2018-02-04T09:39:35.737Z,1.41
2018-02-04T09:40:57.899Z,1.48
2018-02-04T09:42:19.764Z,1.62
2018-02-04T09:43:41.370Z,1.58
2018-02-04T09:45:03.003Z,1.62
2018-02-04T09:46:25.155Z,1.65
2018-02-04T09:47:47.047Z,1.6
2018-02-04T09:49:08.913Z,1.76
2018-02-04T09:50:30.800Z,1.83
2018-02-04T09:51:52.480Z,1.77
2018-02-04T09:53:14.362Z,1.93
2018-02-04T09:54:35.989Z,2.21
2018-02-04T09:55:57.890Z,2.3
2018-02-04T09:57:19.751Z,2.39
2018-02-04T09:58:41.707Z,2.38
2018-02-04T10:00:03.650Z,2.34
2018-02-04T10:01:25.530Z,2.07
2018-02-04T10:02:47.163Z,1.98
2018-02-04T10:04:09.357Z,2.02
2018-02-04T10:05:31.028Z,2.2
2018-02-04T10:06:52.624Z,2.1
2018-02-04T10:08:14.789Z,1.99
2018-02-04T10:09:36.677Z,1.87
2018-02-04T10:10:58.584Z,1.8
2018-02-04T10:12:20.708Z,1.98
2018-02-04T10:13:42.860Z,2.17
2018-02-04T10:15:05.017Z,2.18
2018-02-04T10:16:27.202Z,2.42
2018-02-04T10:17:48.547Z,2.35
2018-02-04T10:19:10.470Z,2.41
2018-02-04T10:20:32.398Z,2.25
2018-02-04T10:21:54.274Z,2.28
2018-02-04T10:23:16.228Z,2.52
2018-02-04T10:24:37.908Z,2.59
2018-02-04T10:25:59.318Z,2.69
2018-02-04T10:27:21.209Z,2.81
2018-02-04T10:28:43.381Z,3.06
2018-02-04T10:30:05.270Z,3.35
2018-02-04T10:31:27.187Z,3.18
2018-02-04T10:32:49.342Z,3.31
2018-02-04T10:34:11.486Z,3.42
2018-02-04T10:35:33.630Z,3.31
2018-02-04T10:36:55.750Z,3.26
2018-02-04T10:38:17.372Z,3.03
2018-02-04T10:39:39.678Z,3.23
2018-02-04T10:41:01.821Z,3.17
2018-02-04T10:42:23.970Z,3.51
2018-02-04T10:43:45.834Z,3.43
2018-02-04T10:45:07.488Z,3.33
2018-02-04T10:46:29.721Z,3.35
2018-02-04T10:47:51.899Z,3.33
2018-02-04T10:49:14.076Z,3.45
2018-02-04T10:50:35.761Z,3.5
2018-02-04T10:51:57.910Z,3.51
2018-02-04T10:53:19.828Z,3.75
2018-02-04T10:54:42.029Z,3.88
2018-02-04T10:56:04.148Z,3.86
2018-02-04T10:57:26.027Z,3.9
2018-02-04T10:58:47.675Z,3.96
2018-02-04T11:00:09.867Z,3.98
2018-02-04T11:01:32.020Z,4.04
2018-02-04T11:02:53.619Z,4.09
2018-02-04T11:04:15.783Z,3.97
2018-02-04T11:05:37.674Z,3.96
2018-02-04T11:06:59.600Z,3.54
2018-02-04T11:08:21.958Z,3.66
2018-02-04T11:09:43.844Z,3.72
2018-02-04T11:11:05.633Z,3.83
2018-02-04T11:12:27.530Z,3.78
2018-02-04T11:13:49.409Z,3.78
2018-02-04T11:15:11.093Z,3.52
2018-02-04T11:16:33.048Z,3.55
2018-02-04T11:17:55.279Z,3.4
2018-02-04T11:19:17.440Z,3.24
2018-02-04T11:20:39.619Z,3.02
2018-02-04T11:22:01.811Z,3.02
2018-02-04T11:23:23.404Z,2.92
2018-02-04T11:24:45.612Z,3.03
2018-02-04T11:26:07.509Z,3.06
2018-02-04T11:27:29.642Z,2.95
2018-02-04T11:28:51.792Z,2.79
2018-02-04T11:30:13.709Z,2.97
2018-02-04T11:31:35.449Z,2.93
2018-02-04T11:32:57.581Z,3
2018-02-04T11:34:19.284Z,3
2018-02-04T11:35:41.177Z,2.99
2018-02-04T11:37:02.809Z,2.95
2018-02-04T11:38:24.159Z,2.87
2018-02-04T11:39:45.789Z,2.78
2018-02-04T11:41:07.686Z,2.87
2018-02-04T11:42:29.562Z,2.63
2018-02-04T11:43:51.208Z,2.66
2018-02-04T11:45:12.831Z,2.67
2018-02-04T11:46:35.050Z,2.63
2018-02-04T11:47:57.250Z,2.31
2018-02-04T11:49:19.388Z,2.35
2018-02-04T11:50:41.100Z,2.49
2018-02-04T11:52:02.717Z,2.39
2018-02-04T11:53:24.621Z,2.34
2018-02-04T11:54:46.533Z,2.38
2018-02-04T11:56:08.463Z,2.41
2018-02-04T11:57:30.495Z,2.3
2018-02-04T11:58:52.636Z,2.39
2018-02-04T12:00:14.949Z,2.41
2018-02-04T12:01:37.133Z,2.3
2018-02-04T12:02:59.011Z,2.42
2018-02-04T12:04:21.185Z,2.42
2018-02-04T12:05:43.077Z,2.57
2018-02-04T12:07:04.724Z,2.42
2018-02-04T12:08:26.917Z,2.6
2018-02-04T12:09:48.911Z,2.53
2018-02-04T12:11:10.891Z,2.46
2018-02-04T12:12:32.784Z,2.64
2018-02-04T12:13:55.142Z,2.6
2018-02-04T12:15:17.291Z,2.6
2018-02-04T12:16:39.470Z,2.64
2018-02-04T12:18:01.416Z,2.66
2018-02-04T12:19:23.279Z,2.49
2018-02-04T12:20:45.391Z,2.31
2018-02-04T12:22:07.029Z,2.53
2018-02-04T12:23:28.377Z,2.57
2018-02-04T12:24:50.495Z,2.6
2018-02-04T12:26:12.462Z,2.61
2018-02-04T12:27:34.153Z,2.48
2018-02-04T12:28:56.044Z,2.49
2018-02-04T12:30:18.364Z,2.38
2018-02-04T12:31:40.423Z,2.35
2018-02-04T12:33:02.313Z,2.38
2018-02-04T12:34:24.204Z,2.59
2018-02-04T12:35:46.379Z,2.77
2018-02-04T12:37:08.525Z,2.57
2018-02-04T12:38:30.729Z,2.39
2018-02-04T12:39:52.884Z,2.43
2018-02-04T12:41:14.828Z,2.3
2018-02-04T12:42:36.466Z,2.18
2018-02-04T12:43:58.616Z,2.28
2018-02-04T12:45:20.517Z,2.25
2018-02-04T12:46:42.686Z,2.38
2018-02-04T12:48:04.849Z,2.54
2018-02-04T12:49:27.021Z,2.53
2018-02-04T12:50:49.178Z,2.59
2018-02-04T12:52:11.107Z,2.38
2018-02-04T12:53:33.139Z,2.42
2018-02-04T12:54:55.366Z,2.43
2018-02-04T12:56:17.363Z,2.53
2018-02-04T12:57:39.264Z,2.59
2018-02-04T12:59:01.589Z,2.45
2018-02-04T13:00:23.759Z,2.39
2018-02-04T13:01:45.976Z,2.39
2018-02-04T13:03:08.184Z,2.52
2018-02-04T13:04:29.837Z,2.56
2018-02-04T13:05:51.793Z,2.59
2018-02-04T13:07:14.090Z,2.69
2018-02-04T13:08:36.418Z,2.67
2018-02-04T13:09:58.968Z,2.67
2018-02-04T13:11:21.168Z,2.64
2018-02-04T13:12:43.316Z,2.69
2018-02-04T13:14:05.500Z,2.87
2018-02-04T13:15:27.178Z,2.72
2018-02-04T13:16:48.803Z,2.71
2018-02-04T13:18:10.666Z,2.78
2018-02-04T13:19:32.846Z,2.84
2018-02-04T13:20:55.101Z,2.72
2018-02-04T13:22:16.990Z,2.54
2018-02-04T13:23:39.170Z,2.36
2018-02-04T13:25:01.679Z,2.45
2018-02-04T13:26:23.822Z,2.41
2018-02-04T13:27:45.703Z,2.48
2018-02-04T13:29:07.975Z,2.54
2018-02-04T13:30:30.176Z,2.67
2018-02-04T13:31:52.229Z,2.63
2018-02-04T13:33:13.967Z,2.63
2018-02-04T13:34:35.859Z,2.35
2018-02-04T13:35:58.059Z,2.36
2018-02-04T13:37:20.381Z,2.39
2018-02-04T13:38:42.296Z,2.41
2018-02-04T13:40:04.543Z,2.42
2018-02-04T13:41:26.768Z,2.49
2018-02-04T13:42:48.834Z,2.54
2018-02-04T13:44:11.261Z,2.48
2018-02-04T13:45:33.699Z,2.61
2018-02-04T13:46:55.814Z,2.6
2018-02-04T13:48:18.283Z,2.38
2018-02-04T13:49:40.899Z,2.41
2018-02-04T13:51:03.494Z,2.43
2018-02-04T13:52:25.714Z,2.38
2018-02-04T13:53:47.137Z,2.35
2018-02-04T13:55:09.397Z,2.31
2018-02-04T13:56:31.286Z,2.35
2018-02-04T13:57:53.558Z,2.42
2018-02-04T13:59:15.531Z,2.36
2018-02-04T14:00:37.680Z,2.45
2018-02-04T14:01:59.434Z,2.41
2018-02-04T14:03:21.359Z,2.52
2018-02-04T14:04:43.590Z,2.43
2018-02-04T14:06:05.911Z,2.54
2018-02-04T14:07:27.891Z,2.43
2018-02-04T14:08:49.793Z,2.38
2018-02-04T14:10:11.794Z,2.41
2018-02-04T14:11:34.217Z,2.38
2018-02-04T14:12:56.697Z,2.31
2018-02-04T14:14:18.702Z,2.52
2018-02-04T14:15:40.629Z,2.42
2018-02-04T14:17:02.858Z,2.53
2018-02-04T14:18:25.212Z,2.6
2018-02-04T14:19:47.390Z,2.54
2018-02-04T14:21:09.949Z,2.57
2018-02-04T14:22:32.108Z,2.57
2018-02-04T14:23:54.135Z,2.52
2018-02-04T14:25:16.388Z,2.45
2018-02-04T14:26:38.368Z,2.6
2018-02-04T14:28:00.527Z,2.53
2018-02-04T14:29:22.829Z,2.54
2018-02-04T14:30:45.065Z,2.53
2018-02-04T14:32:07.152Z,2.59
2018-02-04T14:33:29.904Z,2.43
2018-02-04T14:34:51.647Z,2.59
2018-02-04T14:36:13.898Z,2.48
2018-02-04T14:37:35.866Z,2.48
2018-02-04T14:38:58.168Z,2.52
2018-02-04T14:40:20.278Z,2.52
2018-02-04T14:41:42.437Z,2.52
2018-02-04T14:43:04.608Z,2.53
2018-02-04T14:44:26.272Z,2.6
2018-02-04T14:45:48.469Z,2.54
2018-02-04T14:47:10.397Z,2.56
2018-02-04T14:48:32.497Z,2.56
2018-02-04T14:49:54.660Z,2.53
2018-02-04T14:51:16.579Z,2.49
2018-02-04T14:52:38.752Z,2.46
2018-02-04T14:54:00.701Z,2.57
2018-02-04T14:55:22.711Z,2.59
2018-02-04T14:56:44.082Z,2.53
2018-02-04T14:58:06.113Z,2.57
2018-02-04T14:59:28.319Z,2.48
2018-02-04T15:00:50.498Z,2.59
2018-02-04T15:02:12.505Z,2.57
2018-02-04T15:03:34.708Z,2.52
2018-02-04T15:04:57.016Z,2.57
2018-02-04T15:06:19.031Z,2.54
2018-02-04T15:07:43.256Z,2.59
2018-02-04T15:09:05.502Z,2.66
2018-02-04T15:10:27.674Z,2.61
2018-02-04T15:11:49.880Z,2.66
2018-02-04T15:13:12.114Z,2.61
2018-02-04T15:14:34.323Z,2.61
2018-02-04T15:15:56.557Z,2.54
2018-02-04T15:17:18.202Z,2.67
2018-02-04T15:18:40.106Z,2.6
2018-02-04T15:20:01.769Z,2.72
2018-02-04T15:21:23.747Z,2.72
2018-02-04T15:22:45.649Z,2.75
2018-02-04T15:24:07.558Z,2.77
2018-02-04T15:25:29.726Z,2.71
2018-02-04T15:26:51.916Z,2.75
2018-02-04T15:28:13.576Z,2.67
2018-02-04T15:29:35.707Z,2.74
2018-02-04T15:30:57.778Z,2.77
2018-02-04T15:32:19.971Z,2.75
2018-02-04T15:33:41.997Z,2.78
2018-02-04T15:35:04.155Z,2.79
2018-02-04T15:36:26.043Z,2.74
2018-02-04T15:37:47.754Z,2.71
2018-02-04T15:39:09.951Z,2.63
2018-02-04T15:40:32.289Z,2.64
2018-02-04T15:41:54.224Z,2.67
2018-02-04T15:43:16.525Z,2.64
2018-02-04T15:44:38.417Z,2.71
2018-02-04T15:46:00.664Z,2.61
2018-02-04T15:47:22.909Z,2.61
2018-02-04T15:48:46.475Z,2.6
2018-02-04T15:50:09.022Z,2.6
2018-02-04T15:51:31.279Z,2.66
2018-02-04T15:52:53.333Z,2.63
2018-02-04T15:54:15.581Z,2.63
2018-02-04T15:55:37.737Z,2.6
2018-02-04T15:56:59.670Z,2.61
2018-02-04T15:58:21.918Z,2.66
2018-02-04T15:59:44.168Z,2.6
2018-02-04T16:01:06.084Z,2.66
2018-02-04T16:02:28.357Z,2.61
2018-02-04T16:03:50.520Z,2.61
2018-02-04T16:05:12.712Z,2.57
2018-02-04T16:06:34.859Z,2.57
2018-02-04T16:07:56.957Z,2.56
2018-02-04T16:09:18.890Z,2.52
2018-02-04T16:10:41.069Z,2.66
2018-02-04T16:12:03.030Z,2.52
2018-02-04T16:13:25.280Z,2.54
2018-02-04T16:14:47.191Z,2.54
2018-02-04T16:16:09.103Z,2.54
2018-02-04T16:17:31.288Z,2.41
2018-02-04T16:18:53.188Z,2.56
2018-02-04T16:20:14.825Z,2.57
2018-02-04T16:21:37.331Z,2.36
2018-02-04T16:22:59.507Z,2.46
2018-02-04T16:24:21.698Z,2.38
2018-02-04T16:25:44.036Z,2.38
2018-02-04T16:27:05.977Z,2.45
2018-02-04T16:28:28.219Z,2.39
2018-02-04T16:29:49.863Z,2.36
2018-02-04T16:31:11.953Z,2.34
2018-02-04T16:32:33.558Z,2.34
2018-02-04T16:33:55.438Z,2.42
2018-02-04T16:35:17.802Z,2.39
2018-02-04T16:36:40.563Z,2.39
2018-02-04T16:38:04.105Z,2.38
2018-02-04T16:39:27.165Z,2.35
2018-02-04T16:40:50.964Z,2.38
2018-02-04T16:42:12.895Z,2.39
2018-02-04T16:43:34.543Z,2.49
2018-02-04T16:44:56.781Z,2.41
2018-02-04T16:46:19.140Z,2.3
2018-02-04T16:47:40.590Z,2.46
2018-02-04T16:49:02.518Z,2.35
2018-02-04T16:50:25.279Z,2.31
2018-02-04T16:51:47.578Z,2.42
2018-02-04T16:53:08.934Z,2.42
2018-02-04T16:54:31.139Z,2.39
2018-02-04T16:55:53.055Z,2.41
2018-02-04T16:57:15.353Z,2.39
2018-02-04T16:58:37.526Z,2.38
2018-02-04T16:59:59.429Z,2.38
2018-02-04T17:01:21.656Z,2.39
2018-02-04T17:02:43.828Z,2.46
2018-02-04T17:04:06.064Z,2.38
2018-02-04T17:05:27.858Z,2.45
2018-02-04T17:06:49.525Z,2.38
2018-02-04T17:08:11.450Z,2.36
2018-02-04T17:09:33.627Z,2.41
2018-02-04T17:10:55.595Z,2.38
2018-02-04T17:12:17.819Z,2.46
2018-02-04T17:13:39.724Z,2.35
2018-02-04T17:15:01.956Z,2.41
2018-02-04T17:16:24.142Z,2.38
2018-02-04T17:17:46.475Z,2.35
2018-02-04T17:19:08.244Z,2.42
2018-02-04T17:20:30.422Z,2.46
2018-02-04T17:21:52.452Z,2.34
2018-02-04T17:23:14.613Z,2.35
2018-02-04T17:24:36.818Z,2.39
2018-02-04T17:25:58.579Z,2.35
2018-02-04T17:27:20.804Z,2.39
2018-02-04T17:28:42.252Z,2.39
2018-02-04T17:30:04.456Z,2.41
2018-02-04T17:31:26.639Z,2.35
2018-02-04T17:32:48.556Z,2.35
2018-02-04T17:34:10.849Z,2.52
2018-02-04T17:35:32.823Z,2.41
2018-02-04T17:36:54.962Z,2.34
2018-02-04T17:38:16.914Z,2.35
2018-02-04T17:39:39.119Z,2.38
2018-02-04T17:41:01.275Z,2.41
2018-02-04T17:42:23.206Z,2.38
2018-02-04T17:43:45.481Z,2.41
2018-02-04T17:45:07.731Z,2.41
2018-02-04T17:46:29.867Z,2.42
2018-02-04T17:47:51.786Z,2.41
2018-02-04T17:49:13.431Z,2.48
2018-02-04T17:50:35.661Z,2.34
2018-02-04T17:51:57.876Z,2.42
2018-02-04T17:53:20.026Z,2.46
2018-02-04T17:54:42.317Z,2.43
2018-02-04T17:56:04.250Z,2.45
2018-02-04T17:57:26.396Z,2.39
2018-02-04T17:58:48.599Z,2.43
2018-02-04T18:00:10.550Z,2.41
2018-02-04T18:01:32.612Z,2.46
2018-02-04T18:02:54.868Z,2.36
2018-02-04T18:04:17.010Z,2.38
2018-02-04T18:05:39.306Z,2.35
2018-02-04T18:07:00.978Z,2.35
2018-02-04T18:08:23.192Z,2.38
2018-02-04T18:09:45.549Z,2.35
2018-02-04T18:11:07.461Z,2.36
2018-02-04T18:12:29.672Z,2.46
2018-02-04T18:13:51.816Z,2.45